地図

経路データ

SID SEASON NUMBER BASIN SUBBASIN NAME ISO_TIME NATURE LAT LON WMO_WIND WMO_PRES WMO_AGENCY TRACK_TYPE DIST2LAND LANDFALL IFLAG USA_AGENCY USA_ATCF_ID USA_LAT USA_LON USA_RECORD USA_STATUS USA_WIND USA_PRES USA_SSHS USA_R34_NE USA_R34_SE USA_R34_SW USA_R34_NW USA_R50_NE USA_R50_SE USA_R50_SW USA_R50_NW USA_R64_NE USA_R64_SE USA_R64_SW USA_R64_NW USA_POCI USA_ROCI USA_RMW USA_EYE TOKYO_LAT TOKYO_LON TOKYO_GRADE TOKYO_WIND TOKYO_PRES TOKYO_R50_DIR TOKYO_R50_LONG TOKYO_R50_SHORT TOKYO_R30_DIR TOKYO_R30_LONG TOKYO_R30_SHORT TOKYO_LAND CMA_LAT CMA_LON CMA_CAT CMA_WIND CMA_PRES HKO_LAT HKO_LON HKO_CAT HKO_WIND HKO_PRES NEWDELHI_LAT NEWDELHI_LON NEWDELHI_GRADE NEWDELHI_WIND NEWDELHI_PRES NEWDELHI_CI NEWDELHI_DP NEWDELHI_POCI REUNION_LAT REUNION_LON REUNION_TYPE REUNION_WIND REUNION_PRES REUNION_TNUM REUNION_CI REUNION_RMW REUNION_R34_NE REUNION_R34_SE REUNION_R34_SW REUNION_R34_NW REUNION_R50_NE REUNION_R50_SE REUNION_R50_SW REUNION_R50_NW REUNION_R64_NE REUNION_R64_SE REUNION_R64_SW REUNION_R64_NW BOM_LAT BOM_LON BOM_TYPE BOM_WIND BOM_PRES BOM_TNUM BOM_CI BOM_RMW BOM_R34_NE BOM_R34_SE BOM_R34_SW BOM_R34_NW BOM_R50_NE BOM_R50_SE BOM_R50_SW BOM_R50_NW BOM_R64_NE BOM_R64_SE BOM_R64_SW BOM_R64_NW BOM_ROCI BOM_POCI BOM_EYE BOM_POS_METHOD BOM_PRES_METHOD NADI_LAT NADI_LON NADI_CAT NADI_WIND NADI_PRES WELLINGTON_LAT WELLINGTON_LON WELLINGTON_WIND WELLINGTON_PRES DS824_LAT DS824_LON DS824_STAGE DS824_WIND DS824_PRES TD9636_LAT TD9636_LON TD9636_STAGE TD9636_WIND TD9636_PRES TD9635_LAT TD9635_LON TD9635_WIND TD9635_PRES TD9635_ROCI NEUMANN_LAT NEUMANN_LON NEUMANN_CLASS NEUMANN_WIND NEUMANN_PRES MLC_LAT MLC_LON MLC_CLASS MLC_WIND MLC_PRES USA_GUST BOM_GUST BOM_GUST_PER REUNION_GUST REUNION_GUST_PER USA_SEAHGT USA_SEARAD_NE USA_SEARAD_SE USA_SEARAD_SW USA_SEARAD_NW STORM_SPEED STORM_DIR
1991317S07164 1992 94 SP MM TIA 1991-11-12 18:00:00 TS -7.10000 163.600 main 332 301 O___________O_ jtwc_sh SH031992 -7.10000 163.600 20 -1 -7.10000 163.600 TC 20 6 233
1991317S07164 1992 94 SP MM TIA 1991-11-12 21:00:00 TS -7.29003 163.345 main 292 262 P___________P_ SH031992 -7.29003 163.345 22 -1 -7.29003 163.345 TC 22 6 231
1991317S07164 1992 94 SP MM TIA 1991-11-13 00:00:00 TS -7.50000 163.100 main 262 232 O___________O_ jtwc_sh SH031992 -7.50000 163.100 25 -1 -7.50000 163.100 TC 25 7 226
1991317S07164 1992 94 SP MM TIA 1991-11-13 03:00:00 TS -7.74250 162.878 main 232 198 P___________P_ SH031992 -7.74250 162.878 25 -1 -7.74250 162.878 TC 25 6 218
1991317S07164 1992 94 SP MM TIA 1991-11-13 06:00:00 TS -8.00000 162.700 main 198 166 O___________O_ jtwc_sh SH031992 -8.00000 162.700 25 -1 -8.00000 162.700 TC 25 6 213
1991317S07164 1992 94 SP MM TIA 1991-11-13 09:00:00 TS -8.27996 162.525 main 166 153 P___________P_ SH031992 -8.27996 162.525 25 -1 -8.27996 162.525 TC 25 5 202
1991317S07164 1992 94 SP MM TIA 1991-11-13 12:00:00 TS -8.50000 162.500 main 153 153 O___________O_ jtwc_sh SH031992 -8.50000 162.500 25 -1 -8.50000 162.500 TC 25 4 146
1991317S07164 1992 94 SP MM TIA 1991-11-13 15:00:00 TS -8.58753 162.732 main 167 167 P___________P_ SH031992 -8.58753 162.732 25 -1 -8.58753 162.732 TC 25 6 100
1991317S07164 1992 94 SP MM TIA 1991-11-13 18:00:00 TS -8.60000 163.100 main 209 209 O___________O_ jtwc_sh SH031992 -8.60000 163.100 25 -1 -8.60000 163.100 TC 25 7 91
1991317S07164 1992 94 SP MM TIA 1991-11-13 21:00:00 TS -8.59999 163.443 main 240 240 P___________P_ SH031992 -8.59999 163.443 25 -1 -8.59999 163.443 TC 25 7 90
1991317S07164 1992 94 SP MM TIA 1991-11-14 00:00:00 TS -8.60000 163.800 main 282 282 O___________O_ jtwc_sh SH031992 -8.60000 163.800 25 -1 -8.60000 163.800 TC 25 7 94
1991317S07164 1992 94 SP MM TIA 1991-11-14 03:00:00 TS -8.64995 164.142 main 306 305 P___________P_ SH031992 -8.64995 164.142 25 -1 -8.64995 164.142 TC 25 7 98
1991317S07164 1992 94 SP MM TIA 1991-11-14 06:00:00 TS -8.70000 164.500 main 329 329 O___________O_ jtwc_sh SH031992 -8.70000 164.500 25 -1 -8.70000 164.500 TC 25 7 95
1991317S07164 1992 94 SP MM TIA 1991-11-14 09:00:00 TS -8.71496 164.885 main 362 362 P___________P_ SH031992 -8.71496 164.885 27 -1 -8.71496 164.885 TC 27 8 90
1991317S07164 1992 94 SP MM TIA 1991-11-14 12:00:00 TS -8.70000 165.300 main 398 398 O___________O_ jtwc_sh SH031992 -8.70000 165.300 30 -1 -8.70000 165.300 TC 30 9 86
1991317S07164 1992 94 SP MM TIA 1991-11-14 15:00:00 TS -8.64997 165.743 main 440 440 P___________P_ SH031992 -8.64997 165.743 32 -1 -8.64997 165.743 TC 32 9 84
1991317S07164 1992 94 SP MM TIA 1991-11-14 18:00:00 TS -8.60000 166.200 main 488 488 O___________O_ jtwc_sh SH031992 -8.60000 166.200 35 0 -8.60000 166.200 TC 35 9 87
1991317S07164 1992 94 SP MM TIA 1991-11-14 21:00:00 TS -8.59995 166.650 main 527 527 P___________P_ SH031992 -8.59995 166.650 37 -1 -8.59995 166.650 TC 37 9 90
1991317S07164 1992 94 SP MM TIA 1991-11-15 00:00:00 TS -8.60000 167.100 25 999 wellington main 576 576 O_______O___O_ jtwc_sh SH031992 -8.60000 167.100 XX 40 -5 -8.60000 167.100 25 999 -8.60000 167.100 TC 40 9 88
1991317S07164 1992 94 SP MM TIA 1991-11-15 03:00:00 TS -8.56602 167.540 main 617 617 P_______P___P_ SH031992 -8.55747 167.558 XX 42 -5 -8.60021 167.469 26 998 -8.55747 167.558 TC 42 9 85
1991317S07164 1992 94 SP MM TIA 1991-11-15 06:00:00 TS -8.52733 167.956 main 672 672 O_______P___O_ jtwc_sh SH031992 -8.50000 168.000 XX 45 -5 -8.60020 167.840 27 998 -8.50000 168.000 TC 45 8 85
1991317S07164 1992 94 SP MM TIA 1991-11-15 09:00:00 TS -8.49000 168.349 main 702 702 P_______P___P_ SH031992 -8.43496 168.415 XX 47 -5 -8.60010 168.216 28 997 -8.43496 168.415 TC 47 8 85
1991317S07164 1992 94 SP MM TIA 1991-11-15 12:00:00 TS -8.46667 168.733 30 997 wellington main 731 731 O_______O___O_ jtwc_sh SH031992 -8.40000 168.800 XX 50 -5 -8.60000 168.600 30 997 -8.40000 168.800 TC 50 8 90
1991317S07164 1992 94 SP MM TIA 1991-11-15 15:00:00 TS -8.48997 169.107 main 745 745 P_______P___P_ SH031992 -8.43497 169.165 XX 52 -5 -8.59998 168.992 31 996 -8.43497 169.165 TC 52 7 95
1991317S07164 1992 94 SP MM TIA 1991-11-15 18:00:00 TS -8.53333 169.460 main 762 757 O_______P___O_ jtwc_sh SH031992 -8.50000 169.500 XX 55 -5 -8.60000 169.381 32 996 -8.50000 169.500 TC 55 7 96
1991317S07164 1992 94 SP MM TIA 1991-11-15 21:00:00 TS -8.56665 169.795 main 766 766 P_______P___P_ SH031992 -8.54998 169.815 XX 57 -5 -8.60000 169.754 33 995 -8.54998 169.815 TC 57 6 96
1991317S07164 1992 94 SP MM TIA 1991-11-16 00:00:00 TS -8.60000 170.100 35 995 wellington main 782 782 O_______O___O_ jtwc_sh SH031992 -8.60000 170.100 XX 60 -5 -8.60000 170.100 35 995 -8.60000 170.100 TC 60 6 96
1991317S07164 1992 94 SP MM TIA 1991-11-16 03:00:00 TS -8.63102 170.382 main 798 794 P_______P___P_ SH031992 -8.64248 170.365 XX 62 -5 -8.60811 170.415 37 992 -8.64248 170.365 TC 62 5 97
1991317S07164 1992 94 SP MM TIA 1991-11-16 06:00:00 TS -8.66667 170.633 40 990 wellington main 800 800 O_______O___O_ jtwc_sh SH031992 -8.70000 170.600 XX 65 -5 -8.60000 170.700 40 990 -8.70000 170.600 TC 65 5 98
1991317S07164 1992 94 SP MM TIA 1991-11-16 09:00:00 TS -8.69918 170.905 main 817 817 P_______P___P_ SH031992 -8.78501 170.845 XX 67 -5 -8.52751 171.025 42 988 -8.78501 170.845 TC 67 4 103
1991317S07164 1992 94 SP MM TIA 1991-11-16 12:00:00 TS -8.76667 171.067 45 987 wellington main 819 804 O_______O___O_ jtwc_sh SH031992 -8.90000 171.000 XX 70 -5 -8.50000 171.200 45 987 -8.90000 171.000 TC 70 2 151
1991317S07164 1992 94 SP MM TIA 1991-11-16 15:00:00 TS -8.90166 171.022 main 804 779 P_______P___P_ SH031992 -9.04998 171.003 XX 72 -5 -8.60502 171.060 45 986 -9.04998 171.003 TC 72 4 213
1991317S07164 1992 94 SP MM TIA 1991-11-16 18:00:00 TS -9.06667 170.867 45 986 wellington main 779 758 O_______O___O_ jtwc_sh SH031992 -9.20000 170.900 XX 75 -5 -8.80000 170.800 45 986 -9.20000 170.900 TC 75 4 223
1991317S07164 1992 94 SP MM TIA 1991-11-16 21:00:00 TS -9.20916 170.727 main 758 733 P_______P___P_ SH031992 -9.29250 170.772 XX 77 -5 -9.04249 170.635 47 985 -9.29250 170.772 TC 77 4 224
1991317S07164 1992 94 SP MM TIA 1991-11-17 00:00:00 TS -9.36667 170.567 50 985 wellington main 733 712 O_______O___O_ jtwc_sh SH031992 -9.40000 170.600 XX 80 -5 -9.30000 170.500 50 985 -9.40000 170.600 TC 80 5 222
1991317S07164 1992 94 SP MM TIA 1991-11-17 03:00:00 TS -9.54663 170.420 main 712 672 P_______P___P_ SH031992 -9.56995 170.430 XX 82 -5 -9.49998 170.400 52 982 -9.56995 170.430 TC 82 5 219
1991317S07164 1992 94 SP MM TIA 1991-11-17 06:00:00 TS -9.76667 170.233 55 980 wellington main 672 642 O_______O___O_ jtwc_sh SH031992 -9.80000 170.200 XX 85 -5 -9.70000 170.300 55 980 -9.80000 170.200 TC 85 6 226
1991317S07164 1992 94 SP MM TIA 1991-11-17 09:00:00 TS -9.99507 169.950 main 642 596 P_______P___P_ SH031992 -10.0401 169.843 XX 85 -5 -9.90499 170.165 57 977 -10.0401 169.843 TC 87 8 225
1991317S07164 1992 94 SP MM TIA 1991-11-17 12:00:00 TS -10.3333 169.667 60 975 wellington main 596 537 O_______O___O_ jtwc_sh SH031992 -10.4000 169.500 XX 85 -5 -10.2000 170.000 60 975 -10.4000 169.500 TC 90 10 209
1991317S07164 1992 94 SP MM TIA 1991-11-17 15:00:00 TS -10.8625 169.470 main 527 468 P_______P___P_ SH031992 -10.9625 169.305 XX 87 -5 -10.6625 169.800 65 970 -10.9625 169.305 TC 90 12 196
1991317S07164 1992 94 SP MM TIA 1991-11-17 18:00:00 TS -11.4667 169.333 70 965 wellington main 458 405 O_______O___O_ jtwc_sh SH031992 -11.6000 169.200 XX 90 -5 -11.2000 169.600 70 965 -11.6000 169.200 TC 90 12 191
1991317S07164 1992 94 SP MM TIA 1991-11-17 21:00:00 TS -12.0275 169.232 main 405 360 P_______P___P_ SH031992 -12.1875 169.135 XX 90 -5 -11.7075 169.428 72 962 -12.1875 169.135 TC 90 11 189
1991317S07164 1992 94 SP MM TIA 1991-11-18 00:00:00 TS -12.5333 169.167 75 960 wellington main 360 319 O_______O___O_ jtwc_sh SH031992 -12.7000 169.100 XX 90 -5 -12.2000 169.300 75 960 -12.7000 169.100 TC 90 9 188
1991317S07164 1992 94 SP MM TIA 1991-11-18 03:00:00 TS -12.9392 169.107 main 319 287 P_______P___P_ SH031992 -13.0800 169.043 XX 92 -5 -12.6575 169.235 75 960 -13.0800 169.043 TC 92 8 187
1991317S07164 1992 94 SP MM TIA 1991-11-18 06:00:00 TS -13.3000 169.067 75 960 wellington main 287 257 O_______O___O_ jtwc_sh SH031992 -13.4000 169.000 XX 95 -5 -13.1000 169.200 75 960 -13.4000 169.000 TC 95 7 186
1991317S07164 1992 94 SP MM TIA 1991-11-18 09:00:00 TS -13.6633 169.030 main 251 233 P_______P___P_ SH031992 -13.7350 168.985 XX 95 -5 -13.5200 169.120 75 960 -13.7350 168.985 TC 95 8 182
1991317S07164 1992 94 SP MM TIA 1991-11-18 12:00:00 TS -14.0667 169.033 75 960 wellington main 228 218 O_______O___O_ jtwc_sh SH031992 -14.1000 169.000 XX 95 -5 -14.0000 169.100 75 960 -14.1000 169.000 TC 95 9 176
1991317S07164 1992 94 SP MM TIA 1991-11-18 15:00:00 TS -14.5758 169.087 main 219 201 P_______P___P_ SH031992 -14.5425 169.028 XX 92 -5 -14.6425 169.205 72 962 -14.5425 169.028 TC 92 11 171
1991317S07164 1992 94 SP MM TIA 1991-11-18 18:00:00 TS -15.1000 169.200 70 965 wellington main 201 183 O_______O___O_ jtwc_sh SH031992 -15.0000 169.100 XX 90 -5 -15.3000 169.400 70 965 -15.0000 169.100 TC 90 10 166
1991317S07164 1992 94 SP MM TIA 1991-11-18 21:00:00 TS -15.5583 169.346 main 178 178 P_______P___P_ SH031992 -15.4224 169.213 XX 85 -5 -15.8299 169.613 67 967 -15.4224 169.213 TC 85 9 158
1991317S07164 1992 94 SP MM TIA 1991-11-19 00:00:00 TS -15.9667 169.567 65 970 wellington main 195 193 O_______O___O_ jtwc_sh SH031992 -15.8000 169.400 XX 80 -5 -16.3000 169.900 65 970 -15.8000 169.400 TC 80 10 147
1991317S07164 1992 94 SP MM TIA 1991-11-19 03:00:00 TS -16.3567 169.880 main 224 224 P_______P___P_ SH031992 -16.1301 169.685 XX 75 -5 -16.8100 170.270 62 972 -16.1301 169.685 TC 75 10 138
1991317S07164 1992 94 SP MM TIA 1991-11-19 06:00:00 TS -16.6667 170.233 60 975 wellington main 255 255 O_______O___O_ jtwc_sh SH031992 -16.4000 170.000 XX 70 -5 -17.2000 170.700 60 975 -16.4000 170.000 TC 70 8 128
1991317S07164 1992 94 SP MM TIA 1991-11-19 09:00:00 TS -16.8608 170.565 main 300 300 P_______P___P_ SH031992 -16.6074 170.250 XX 65 -5 -17.3677 171.195 57 977 -16.6074 170.250 TC 67 7 119
1991317S07164 1992 94 SP MM TIA 1991-11-19 12:00:00 TS -17.0000 170.867 55 980 wellington main 333 333 O_______O___O_ jtwc_sh SH031992 -16.8000 170.500 XX 60 -5 -17.4000 171.600 55 980 -16.8000 170.500 TC 65 6 121
1991317S07164 1992 94 SP MM TIA 1991-11-19 15:00:00 TS -17.1741 171.115 main 357 357 P_______P___P_ SH031992 -17.0500 170.792 XX 57 -5 -17.4223 171.760 50 983 -17.0500 170.792 TC 60 6 127
1991317S07164 1992 94 SP MM TIA 1991-11-19 18:00:00 TS -17.3333 171.333 45 987 wellington main 380 380 O_______O___O_ jtwc_sh SH031992 -17.3000 171.100 XX 55 -5 -17.4000 171.800 45 987 -17.3000 171.100 TC 55 6 129
1991317S07164 1992 94 SP MM TIA 1991-11-19 21:00:00 TS -17.5476 171.602 main 416 416 P_______P___P_ SH031992 -17.6276 171.467 XX 52 -5 -17.3875 171.873 42 988 -17.6276 171.467 TC 52 5 119
1991317S07164 1992 94 SP MM TIA 1991-11-20 00:00:00 TS -17.5667 171.767 40 990 wellington main 439 420 O_______O___O_ jtwc_sh SH031992 -17.7000 171.700 XX 50 -5 -17.3000 171.900 40 990 -17.7000 171.700 TC 50 4 16
1991317S07164 1992 94 SP MM TIA 1991-11-20 03:00:00 TS -17.1357 171.727 main 418 394 P_______P___P_ SH031992 -17.1674 171.647 XX 45 -5 -17.0725 171.888 37 992 -17.1674 171.647 TC 45 10 347
1991317S07164 1992 94 SP MM TIA 1991-11-20 06:00:00 TS -16.6000 171.533 35 995 wellington main 394 373 O_______O___O_ jtwc_sh SH031992 -16.5000 171.400 XX 40 -5 -16.8000 171.800 35 995 -16.5000 171.400 TC 40 9 332
1991317S07164 1992 94 SP MM TIA 1991-11-20 09:00:00 TS -16.3465 171.296 main 373 341 P_______P___P_ SH031992 -16.2050 171.095 XX 37 -5 -16.6296 171.698 32 996 -16.2050 171.095 TC 37 7 309
1991317S07164 1992 94 SP MM TIA 1991-11-20 12:00:00 TS -16.1333 170.933 30 997 wellington main 331 292 O_______O___O_ jtwc_sh SH031992 -16.0000 170.700 XX 35 -5 -16.4000 171.400 30 997 -16.0000 170.700 TC 35 10 303
1991317S07164 1992 94 SP MM TIA 1991-11-20 15:00:00 TS -15.8085 170.420 main 283 241 P_______P___P_ SH031992 -15.7150 170.258 XX 35 -5 -15.9956 170.744 27 998 -15.7150 170.258 TC 35 12 304
1991317S07164 1992 94 SP MM TIA 1991-11-20 18:00:00 TS -15.4333 169.867 25 999 wellington main 246 219 O_______O___O_ jtwc_sh SH031992 -15.4000 169.800 XX 35 -5 -15.5000 170.000 25 999 -15.4000 169.800 TC 35 13 309
1991317S07164 1992 94 SP MM TIA 1991-11-20 21:00:00 TS -15.0232 169.403 main 224 207 P_______P___P_ SH031992 -15.0499 169.385 XX 35 -5 -14.9698 169.440 25 1000 -15.0499 169.385 TC 35 12 314
1991317S07164 1992 94 SP MM TIA 1991-11-21 00:00:00 TS -14.6333 169.000 25 1001 wellington main 209 184 O_______O___O_ jtwc_sh SH031992 -14.7000 169.000 XX 35 -5 -14.5000 169.000 25 1001 -14.7000 169.000 TC 35 10 314
1991317S07164 1992 94 SP MM TIA 1991-11-21 03:00:00 TS -14.3274 168.657 main 189 163 P_______P___P_ SH031992 -14.3849 168.650 XX 32 -5 -14.2123 168.670 22 1002 -14.3849 168.650 TC 32 9 311
1991317S07164 1992 94 SP MM TIA 1991-11-21 06:00:00 TS -14.0727 168.327 20 1003 wellington main 163 156 O_______O___O_ jtwc_sh SH031992 -14.1000 168.300 XX 30 -5 -14.0000 168.400 20 1003 -14.1000 168.300 TC 30 9 306
1991317S07164 1992 94 SP MM TIA 1991-11-21 09:00:00 TS -13.8205 167.948 main 159 154 P_______P___P_ SH031992 -13.8350 167.908 XX 30 -5 -13.7626 168.110 20 1004 -13.8350 167.908 TC 30 9 303
1991317S07164 1992 94 SP MM TIA 1991-11-21 12:00:00 TS -13.5857 167.543 20 1005 wellington main 156 149 O_______O___O_ jtwc_sh SH031992 -13.6000 167.500 XX 30 -5 -13.5000 167.800 20 1005 -13.6000 167.500 TC 30 9 297
1991317S07164 1992 94 SP MM TIA 1991-11-21 15:00:00 TS -13.3926 167.097 main 155 151 P___________P_ SH031992 -13.3926 167.097 XX 27 -5 -13.3926 167.097 TC 27 9 295
1991317S07164 1992 94 SP MM TIA 1991-11-21 18:00:00 TS -13.2000 166.700 main 168 O___________O_ jtwc_sh SH031992 -13.2000 166.700 XX 25 -5 -13.2000 166.700 TC 25 9 296

デジタル台風データ・検索

IBTrACS Databaseについて

本データベースは、米国NOAAが公開する1842年以降の世界の熱帯低気圧のベストトラックデータアーカイブInternational Best Track Archive for Climate Stewardship (IBTrACS)を、ウェブで閲覧しやすい形式に変換したものです。

最終更新日:2021-11-26